Flight Track Log - Related Links

Times and Time Zones

All times are in EDT time to prevent confusion due to time zone crossing. See the N999CB flight status page for this flight to view local times or setup timezone preferences in your user account.

Time Position Orientation Groundspeed Altitude Reporting Facility
EDT Latitude Longitude Course Direction KTS MPH feet Rate Location/Type
Sun 05:17:00 PM 43.9867 -92.4517 66° East 292 336 9,900  Level Minneapolis Center
Sun 05:18:02 PM 43.9583 -92.3481 111° Southeast 297 342 13,400 2,468 Climbing Minneapolis Center
Sun 05:19:04 PM 43.9247 -92.2192 110° East 337 388 15,000 2,274 Climbing Minneapolis Center
Sun 05:20:06 PM 43.8906 -92.0808 109° East 370 426 18,100 2,806 Climbing Minneapolis Center
Sun 05:21:08 PM 43.8544 -91.9489 111° Southeast 370 426 20,800 2,855 Climbing Minneapolis Center
Sun 05:22:10 PM 43.8119 -91.7783 109° East 389 448 24,000 2,710 Climbing Minneapolis Center
Sun 05:23:12 PM 43.7731 -91.6278 110° East 402 463 26,400 1,935 Climbing Minneapolis Center
Sun 05:24:14 PM 43.7336 -91.4794 110° East 408 470 28,000 1,742 Climbing Minneapolis Center
Sun 05:25:16 PM 43.6925 -91.3228 110° East 427 491 30,000 2,032 Climbing Minneapolis Center
Sun 05:26:18 PM 43.6511 -91.1658 110° East 434 499 32,200 1,403 Climbing Minneapolis Center
Sun 05:27:20 PM 43.6086 -91.0081 110° East 438 504 32,900 378 Climbing Minneapolis Center
Sun 05:28:25 PM 43.5519 -90.8011 111° Southeast 478 550 33,000 49 Climbing Chicago Center
Sun 05:29:23 PM 43.5044 -90.6239 110° East 490 564 33,000  Level Minneapolis Center
Sun 05:30:25 PM 43.4575 -90.4506 110° East 488 562 33,000  Level Minneapolis Center
Sun 05:31:27 PM 43.4097 -90.2786 111° Southeast 486 559 33,000  Level Minneapolis Center
Sun 05:32:29 PM 43.3617 -90.1036 111° Southeast 482 555 33,000  Level Minneapolis Center
Sun 05:33:35 PM 43.3053 -89.9047 111° Southeast 480 552 33,000  Level Chicago Center
Sun 05:34:37 PM 43.2572 -89.7322 111° Southeast 485 558 33,000  Level Chicago Center
Sun 05:35:39 PM 43.2069 -89.5606 112° Southeast 486 559 33,000  Level Chicago Center
Sun 05:36:41 PM 43.1586 -89.3900 111° Southeast 483 556 33,000  Level Chicago Center
Sun 05:37:44 PM 43.1106 -89.1869 108° East 482 555 33,000 -192 Level Chicago Center
Sun 05:38:46 PM 43.0725 -89.0106 106° East 483 556 32,600 -919 Descending Chicago Center
Sun 05:39:48 PM 43.0361 -88.8389 106° East 475 547 31,100 -1,452 Descending Chicago Center
Sun 05:40:50 PM 42.9978 -88.6672 107° East 476 548 29,600 -1,452 Descending Chicago Center
Sun 05:41:52 PM 42.9603 -88.4983 107° East 470 541 28,100 -1,548 Descending Chicago Center
Sun 05:42:54 PM 42.9172 -88.2994 106° East 470 541 26,400 -1,548 Descending Chicago Center
Sun 05:43:56 PM 42.8803 -88.1344 107° East 460 529 24,900 -1,452 Descending Chicago Center
Sun 05:44:58 PM 42.8433 -87.9739 107° East 448 516 23,400 -1,500 Descending Chicago Center
Sun 05:46:00 PM 42.8064 -87.8169 108° East 439 505 21,800 -1,645 Descending Chicago Center
Sun 05:47:02 PM 42.7658 -87.6389 107° East 424 488 20,000 -1,248 Descending Chicago Center
Sun 05:48:05 PM 42.7322 -87.4906 107° East 413 475 19,200 -480 Descending Chicago Center
Sun 05:49:07 PM 42.7000 -87.3589 108° East 407 468 19,000 -97 Descending Chicago Center
Sun 05:50:09 PM 42.6239 -87.2458 132° Southeast 408 470 19,000 -484 Level Chicago Center
Sun 05:51:11 PM 42.5264 -87.1153 135° Southeast 404 465 18,000 -1,113 Descending Chicago Center
Sun 05:52:13 PM 42.4467 -87.0100 136° Southeast 404 465 16,700 -1,306 Descending Chicago Center
Sun 05:53:15 PM 42.3728 -86.9106 135° Southeast 391 450 15,300 -1,355 Descending Chicago Center
Sun 05:54:17 PM 42.2978 -86.8075 135° Southeast 378 435 13,900 -1,306 Descending Chicago Center
Sun 05:55:19 PM 42.2247 -86.7122 136° Southeast 368 423 12,600 -1,355 Descending Chicago Center
Sun 05:56:21 PM 42.1522 -86.6153 135° Southeast 363 418 11,100 -1,210 Descending Chicago Center
Sun 05:57:23 PM 42.0700 -86.5069 136° Southeast 346 398 10,100 -532 Descending Chicago Center
Sun 05:58:25 PM 42.0031 -86.4181 135° Southeast 340 391 10,000 -48 Descending Chicago Center
Sun 05:59:28 PM 41.9367 -86.3308 136° Southeast 335 386 10,000 -720 Level Chicago Center
Sun 06:00:30 PM 41.8769 -86.2533 136° Southeast 304 350 8,500 -1,548 Descending Chicago Center
Sun 06:01:32 PM 41.8206 -86.1778 135° Southeast 290 334 6,800 -1,113 Descending Chicago Center
Sun 06:02:34 PM 41.7639 -86.1044 136° Southeast 285 328 6,200 -532 Descending Chicago Center
Sun 06:03:36 PM 41.6981 -86.0181 136° Southeast 280 322 5,700 -1,113 Descending Chicago Center
Sun 06:04:38 PM 41.6453 -85.9503 136° Southeast 270 311 3,900 -1,452 Descending Chicago Center
Sun 06:05:40 PM 41.5944 -85.8833 135° Southeast 265 305 2,700 -677 Descending Chicago Center
Sun 06:06:42 PM 41.5581 -85.8200 128° Southeast 234 269 2,500 -145 Descending Chicago Center
Sun 06:07:44 PM 41.5136 -85.7972 159° South 204 235 2,400 -145 Descending Chicago Center
Sun 06:08:46 PM 41.5033 -85.7422 104° East 178 205 2,200 -194 Descending Chicago Center

Login

Don't have an account? Register now (free) for customized features, flight alerts, and more!